»·PEaware :: DCM2499 KEUG-KMCC

DCM2499 :: KEUG-KMCC

FLIGHT INFORMATION

Flight Status: Arrived
Operator:
DotCom
More flights by this operator :: More flights under this callsign
Pilot: Alec D. (17934)
Aircraft: BEECH AIRCRAFT SUPER KING AIR COMMUTER
(BE20)
More flights by this aircraft type
Origin: KEUG Mahlon Sweet
United States
Destination: KMCC McClellan
United States
More flights between these airports :: More routes between these airports
Route: +EUG9 EUG J126 SAC
File this flight plan on PilotEdge
Remarks:
Altitude:
(Current/Filed)
23,000ft
Speed:
(Current/Filed)
299kts
Departed: 23-Feb-18 10:33 AM
Arrived: 23-Feb-18 11:47 AM
Distance/Time
Traveled:
338nm/1:14
Distance/Time
To Go:
Arrived

Flight Plot

Page will automatically refresh every two minutes.

Flight plan parsing failed; only flown route is shown


Map Options




Map Legend


Flown Route
Filed Route
Departure Airport
Arrival Airport
Navaid (VOR, NDB)
Fix

Horizontal Profiles

Position Reports

Time Latitude Longitude Heading Altitude Ground
Speed
23-Feb-18 10:23 44.115469 -123.215014 59 373ft 0kts
23-Feb-18 10:24 44.115470 -123.215011 59 373ft 0kts
23-Feb-18 10:25 44.115472 -123.215008 59 373ft 0kts
23-Feb-18 10:26 44.115473 -123.215005 59 373ft 0kts
23-Feb-18 10:27 44.115474 -123.215002 59 373ft 0kts
23-Feb-18 10:28 44.115476 -123.214999 59 373ft 0kts
23-Feb-18 10:29 44.115477 -123.214995 59 373ft 0kts
23-Feb-18 10:30 44.115479 -123.214992 59 373ft 0kts
23-Feb-18 10:31 44.115480 -123.214989 59 373ft 0kts
23-Feb-18 10:32 44.115481 -123.214986 59 373ft 0kts
23-Feb-18 10:33 44.115520 -123.215375 247 373ft 13kts
23-Feb-18 10:34 44.119338 -123.217128 359 373ft 22kts
23-Feb-18 10:35 44.125028 -123.217197 358 373ft 21kts
23-Feb-18 10:36 44.131389 -123.217277 0 373ft 22kts
23-Feb-18 10:37 44.135196 -123.217726 268 373ft 0kts
23-Feb-18 10:38 44.135196 -123.217731 268 373ft 0kts
23-Feb-18 10:39 44.134954 -123.219148 181 373ft 0kts
23-Feb-18 10:40 44.120496 -123.218641 178 692ft 113kts
23-Feb-18 10:41 44.081243 -123.215697 177 2609ft 155kts
23-Feb-18 10:42 44.037753 -123.208002 170 4862ft 170kts
23-Feb-18 10:43 43.986773 -123.195883 176 6167ft 203kts
23-Feb-18 10:44 43.929760 -123.185074 177 7894ft 206kts
23-Feb-18 10:45 43.871779 -123.174132 180 9013ft 238kts
23-Feb-18 10:46 43.800349 -123.160942 178 9003ft 273kts
23-Feb-18 10:47 43.723527 -123.145986 180 9007ft 274kts
23-Feb-18 10:48 43.654333 -123.132389 177 9943ft 216kts
23-Feb-18 10:49 43.602116 -123.122522 175 11896ft 171kts
23-Feb-18 10:50 43.557308 -123.114266 169 13833ft 153kts
23-Feb-18 10:51 43.516190 -123.106397 162 15807ft 145kts
23-Feb-18 10:52 43.477382 -123.098842 165 17812ft 135kts
23-Feb-18 10:53 43.439452 -123.091678 156 19419ft 148kts
23-Feb-18 10:54 43.392046 -123.082072 156 20633ft 177kts
23-Feb-18 10:55 43.343661 -123.072873 151 21950ft 202kts
23-Feb-18 10:56 43.278472 -123.059157 166 22878ft 264kts
23-Feb-18 10:57 43.200094 -123.044651 182 23609ft 311kts
23-Feb-18 10:58 43.118234 -123.029773 185 23566ft 266kts
23-Feb-18 10:59 43.044027 -123.016747 183 23548ft 266kts
23-Feb-18 11:00 42.976809 -123.004665 172 23529ft 222kts
23-Feb-18 11:01 42.917058 -122.993552 168 23530ft 216kts
23-Feb-18 11:02 42.855813 -122.982305 160 23506ft 230kts
23-Feb-18 11:03 42.787735 -122.968949 156 23503ft 265kts
23-Feb-18 11:04 42.710789 -122.954225 158 23501ft 292kts
23-Feb-18 11:05 42.626034 -122.938608 163 23515ft 324kts
23-Feb-18 11:06 42.533788 -122.922290 163 23501ft 338kts
23-Feb-18 11:07 42.439650 -122.902049 163 23541ft 349kts
23-Feb-18 11:08 42.344003 -122.873276 163 23537ft 355kts
23-Feb-18 11:09 42.246779 -122.844188 163 23544ft 358kts
23-Feb-18 11:10 42.149853 -122.815788 162 23533ft 360kts
23-Feb-18 11:11 42.051018 -122.786889 162 23521ft 360kts
23-Feb-18 11:12 41.952957 -122.758306 162 23502ft 362kts
23-Feb-18 11:13 41.854640 -122.729791 162 23501ft 362kts
23-Feb-18 11:14 41.755875 -122.701318 162 23493ft 361kts
23-Feb-18 11:15 41.657695 -122.673034 162 23495ft 361kts
23-Feb-18 11:16 41.559496 -122.644866 162 23484ft 361kts
23-Feb-18 11:17 41.461127 -122.616703 162 23472ft 361kts
23-Feb-18 11:18 41.362995 -122.588704 162 23458ft 361kts
23-Feb-18 11:19 41.264382 -122.560674 161 23414ft 362kts
23-Feb-18 11:20 41.166059 -122.532827 161 23413ft 361kts
23-Feb-18 11:21 41.067783 -122.505045 161 23363ft 362kts
23-Feb-18 11:22 40.969182 -122.477278 161 23376ft 361kts
23-Feb-18 11:23 40.870915 -122.449670 161 23365ft 361kts
23-Feb-18 11:24 40.772778 -122.422193 161 23378ft 360kts
23-Feb-18 11:25 40.674792 -122.394820 161 23440ft 359kts
23-Feb-18 11:26 40.576941 -122.367574 160 23464ft 359kts
23-Feb-18 11:27 40.478889 -122.340185 163 23484ft 363kts
23-Feb-18 11:28 40.379603 -122.312831 162 23509ft 363kts
23-Feb-18 11:29 40.280719 -122.285698 162 23512ft 364kts
23-Feb-18 11:30 40.181552 -122.258758 161 23523ft 362kts
23-Feb-18 11:31 40.083140 -122.230797 157 23523ft 360kts
23-Feb-18 11:32 39.988261 -122.191373 153 23518ft 358kts
23-Feb-18 11:33 39.893567 -122.150021 153 23517ft 358kts
23-Feb-18 11:34 39.798323 -122.109181 154 23508ft 362kts
23-Feb-18 11:35 39.702185 -122.068564 155 23499ft 365kts
23-Feb-18 11:36 39.621329 -122.034671 155 23490ft 366kts
23-Feb-18 11:37 39.526470 -121.995559 153 22060ft 349kts
23-Feb-18 11:38 39.432037 -121.956022 153 20264ft 356kts
23-Feb-18 11:39 39.340013 -121.918040 153 19478ft 339kts
23-Feb-18 11:40 39.239330 -121.865214 134 17659ft 321kts
23-Feb-18 11:41 39.178922 -121.812557 130 16157ft 307kts
23-Feb-18 11:42 39.109801 -121.753278 132 14382ft 300kts
23-Feb-18 11:43 39.039536 -121.695846 133 12563ft 289kts
23-Feb-18 11:44 38.972584 -121.642211 134 10669ft 274kts
23-Feb-18 11:45 38.910250 -121.592748 134 8671ft 252kts
23-Feb-18 11:46 38.852085 -121.546316 137 6667ft 242kts
23-Feb-18 11:47 38.794951 -121.500940 140 4672ft 241kts
23-Feb-18 11:48 38.739210 -121.457029 146 2966ft 220kts
23-Feb-18 11:49 38.684163 -121.435712 166 2055ft 196kts
23-Feb-18 11:50 38.641584 -121.427390 171 1515ft 146kts
23-Feb-18 11:51 38.605630 -121.412317 118 892ft 131kts
23-Feb-18 11:52 38.620005 -121.391509 327 589ft 85kts
23-Feb-18 11:53 38.642991 -121.400498 354 310ft 97kts
23-Feb-18 11:54 38.660545 -121.400445 54 79ft 9kts
23-Feb-18 11:55 38.660653 -121.398301 86 79ft 26kts
23-Feb-18 11:56 38.660965 -121.395747 90 79ft 0kts
23-Feb-18 11:57 38.660965 -121.395745 90 79ft 0kts
23-Feb-18 11:58 38.660965 -121.395745 90 79ft 0kts

Navigation Log

Ident Type
Flight plan parsing failed, navigation log unavailable